createdAt,value
2022-08-02T00:00:58.602Z,20.86
2022-08-02T00:02:04.796Z,20.85
2022-08-02T00:03:06.444Z,20.84
2022-08-02T00:04:09.636Z,20.85
2022-08-02T00:05:11.816Z,20.84
2022-08-02T00:06:14.418Z,20.83
2022-08-02T00:07:16.183Z,20.82
2022-08-02T00:08:19.013Z,20.82
2022-08-02T00:09:21.325Z,20.82
2022-08-02T00:10:24.169Z,20.80
2022-08-02T00:11:25.866Z,20.79
2022-08-02T00:12:28.495Z,20.81
2022-08-02T00:13:30.046Z,20.79
2022-08-02T00:14:32.650Z,20.79
2022-08-02T00:15:34.350Z,20.77
2022-08-02T00:16:38.703Z,20.77
2022-08-02T00:17:40.398Z,20.76
2022-08-02T00:18:43.281Z,20.75
2022-08-02T00:19:45.929Z,20.74
2022-08-02T00:20:48.542Z,20.74
2022-08-02T00:21:50.116Z,20.74
2022-08-02T00:22:52.677Z,20.72
2022-08-02T00:24:28.312Z,20.73
2022-08-02T00:25:17.367Z,20.71
2022-08-02T00:26:19.057Z,20.70
2022-08-02T00:27:21.657Z,20.69
2022-08-02T00:28:27.383Z,20.71
2022-08-02T00:29:30.979Z,20.71
2022-08-02T00:30:32.657Z,20.70
2022-08-02T00:31:35.285Z,20.70
2022-08-02T00:32:38.224Z,20.70
2022-08-02T00:34:29.878Z,20.71
2022-08-02T00:35:07.761Z,20.70
2022-08-02T00:36:09.439Z,20.70
2022-08-02T00:37:12.030Z,20.71
2022-08-02T00:38:13.667Z,20.70
2022-08-02T00:39:34.390Z,20.70
2022-08-02T00:40:37.302Z,20.70
2022-08-02T00:41:47.058Z,20.69
2022-08-02T00:43:01.986Z,20.67
2022-08-02T00:44:03.697Z,20.67
2022-08-02T00:45:07.488Z,20.65
2022-08-02T00:46:09.320Z,20.65
2022-08-02T00:47:14.961Z,20.65
2022-08-02T00:48:23.566Z,20.63
2022-08-02T00:49:25.211Z,20.64
2022-08-02T00:50:32.337Z,20.63
2022-08-02T00:51:33.954Z,20.64
2022-08-02T00:52:36.539Z,20.64
2022-08-02T00:53:38.661Z,20.64
2022-08-02T00:54:41.306Z,20.65
2022-08-02T00:55:42.925Z,20.63
2022-08-02T00:56:49.720Z,20.64
2022-08-02T00:57:53.139Z,20.64
2022-08-02T00:58:56.218Z,20.63
2022-08-02T00:59:57.816Z,20.63
2022-08-02T01:01:01.959Z,20.63
2022-08-02T01:02:03.698Z,20.61
2022-08-02T01:03:06.465Z,20.62
2022-08-02T01:04:12.442Z,20.62
2022-08-02T01:05:14.082Z,20.61
2022-08-02T01:06:17.652Z,20.61
2022-08-02T01:07:19.216Z,20.61
2022-08-02T01:08:21.838Z,20.61
2022-08-02T01:09:31.587Z,20.61
2022-08-02T01:10:34.500Z,20.60
2022-08-02T01:11:36.769Z,20.60
2022-08-02T01:12:39.308Z,20.60
2022-08-02T01:13:41.094Z,20.59
2022-08-02T01:14:47.053Z,20.58
2022-08-02T01:16:03.082Z,20.57
2022-08-02T01:17:08.822Z,20.56
2022-08-02T01:18:20.302Z,20.55
2022-08-02T01:19:35.222Z,20.54
2022-08-02T01:20:56.343Z,20.53
2022-08-02T01:22:30.382Z,20.51
2022-08-02T01:24:18.005Z,20.51
2022-08-02T01:25:44.875Z,20.49
2022-08-02T01:26:52.289Z,20.49
2022-08-02T01:28:18.457Z,20.48
2022-08-02T01:29:28.294Z,20.48
2022-08-02T01:30:33.052Z,20.46
2022-08-02T01:31:38.289Z,20.46
2022-08-02T01:32:45.790Z,20.45
2022-08-02T01:33:56.591Z,20.44
2022-08-02T01:35:03.604Z,20.44
2022-08-02T01:36:10.517Z,20.45
2022-08-02T01:37:19.046Z,20.44
2022-08-02T01:38:25.992Z,20.43
2022-08-02T01:39:32.292Z,20.41
2022-08-02T01:40:37.509Z,20.41
2022-08-02T01:41:42.803Z,20.39
2022-08-02T01:42:50.079Z,20.40
2022-08-02T01:43:59.436Z,20.39
2022-08-02T01:45:02.932Z,20.38
2022-08-02T01:46:08.158Z,20.37
2022-08-02T01:47:17.795Z,20.37
2022-08-02T01:48:21.116Z,20.36
2022-08-02T01:49:27.978Z,20.37
2022-08-02T01:50:33.409Z,20.37
2022-08-02T01:51:56.160Z,20.36
2022-08-02T01:53:01.156Z,20.34
2022-08-02T01:54:03.647Z,20.34
2022-08-02T01:55:18.659Z,20.32
2022-08-02T01:56:21.638Z,20.30
2022-08-02T01:57:26.751Z,20.29
2022-08-02T01:58:31.920Z,20.27
2022-08-02T01:59:37.131Z,20.26
2022-08-02T02:00:41.799Z,20.25
2022-08-02T02:01:45.965Z,20.26
2022-08-02T02:02:50.625Z,20.25
2022-08-02T02:03:52.551Z,20.25
2022-08-02T02:04:58.929Z,20.24
2022-08-02T02:06:02.541Z,20.24
2022-08-02T02:07:08.105Z,20.23
2022-08-02T02:08:10.743Z,20.20
2022-08-02T02:09:16.456Z,20.19
2022-08-02T02:10:22.282Z,20.19
2022-08-02T02:12:10.089Z,20.17
2022-08-02T02:12:49.341Z,20.15
2022-08-02T02:13:53.111Z,20.13
2022-08-02T02:14:57.554Z,20.12
2022-08-02T02:16:03.940Z,20.10
2022-08-02T02:17:08.101Z,20.08
2022-08-02T02:18:31.731Z,20.06
2022-08-02T02:19:35.839Z,20.07
2022-08-02T02:20:38.369Z,20.06
2022-08-02T02:21:41.545Z,20.05
2022-08-02T02:22:45.144Z,20.05
2022-08-02T02:23:51.018Z,20.05
2022-08-02T02:24:53.690Z,20.02
2022-08-02T02:25:57.993Z,20.02
2022-08-02T02:27:02.759Z,19.99
2022-08-02T02:28:08.137Z,20.00
2022-08-02T02:29:12.486Z,19.99
2022-08-02T02:30:16.996Z,19.98
2022-08-02T02:31:22.681Z,19.97
2022-08-02T02:32:27.270Z,19.97
2022-08-02T02:33:32.983Z,19.96
2022-08-02T02:34:39.197Z,19.95
2022-08-02T02:35:43.949Z,19.94
2022-08-02T02:36:49.544Z,19.94
2022-08-02T02:37:55.851Z,19.93
2022-08-02T02:39:03.123Z,19.91
2022-08-02T02:40:07.757Z,19.92
2022-08-02T02:41:10.732Z,19.92
2022-08-02T02:42:16.990Z,19.91
2022-08-02T02:43:20.498Z,19.88
2022-08-02T02:44:24.537Z,19.88
2022-08-02T02:45:31.671Z,19.87
2022-08-02T02:46:34.102Z,19.85
2022-08-02T02:47:41.078Z,19.83
2022-08-02T02:48:43.853Z,19.81
2022-08-02T02:49:48.569Z,19.79
2022-08-02T02:50:51.133Z,19.79
2022-08-02T02:51:55.051Z,19.79
2022-08-02T02:52:58.149Z,19.77
2022-08-02T02:54:33.297Z,19.76
2022-08-02T02:55:25.292Z,19.76
2022-08-02T02:56:27.433Z,19.74
2022-08-02T02:57:31.228Z,19.73
2022-08-02T02:58:33.303Z,19.73
2022-08-02T02:59:49.036Z,19.71
2022-08-02T03:01:11.314Z,19.72
2022-08-02T03:02:15.198Z,19.71
2022-08-02T03:03:21.401Z,19.70
2022-08-02T03:04:25.979Z,19.70
2022-08-02T03:05:27.643Z,19.71
2022-08-02T03:06:31.304Z,19.71
2022-08-02T03:07:34.879Z,19.71
2022-08-02T03:08:36.976Z,19.71
2022-08-02T03:09:40.296Z,19.70
2022-08-02T03:10:43.774Z,19.71
2022-08-02T03:11:47.100Z,19.70
2022-08-02T03:12:49.660Z,19.71
2022-08-02T03:13:53.399Z,19.69
2022-08-02T03:14:56.923Z,19.70
2022-08-02T03:16:01.396Z,19.69
2022-08-02T03:17:03.044Z,19.69
2022-08-02T03:18:07.736Z,19.70
2022-08-02T03:19:09.900Z,19.71
2022-08-02T03:20:15.071Z,19.71
2022-08-02T03:21:16.806Z,19.72
2022-08-02T03:22:19.458Z,19.71
2022-08-02T03:23:21.085Z,19.71
2022-08-02T03:24:28.183Z,19.71
2022-08-02T03:25:30.320Z,19.70
2022-08-02T03:26:32.995Z,19.71
2022-08-02T03:27:34.594Z,19.71
2022-08-02T03:28:37.523Z,19.71
2022-08-02T03:29:39.186Z,19.71
2022-08-02T03:30:41.741Z,19.70
2022-08-02T03:31:46.442Z,19.70
2022-08-02T03:32:49.814Z,19.70
2022-08-02T03:33:52.282Z,19.69
2022-08-02T03:34:55.411Z,19.67
2022-08-02T03:35:59.800Z,19.67
2022-08-02T03:37:04.857Z,19.66
2022-08-02T03:38:07.681Z,19.66
2022-08-02T03:39:11.808Z,19.64
2022-08-02T03:40:14.225Z,19.64
2022-08-02T03:41:19.852Z,19.63
2022-08-02T03:42:22.992Z,19.63
2022-08-02T03:43:28.805Z,19.63
2022-08-02T03:44:31.601Z,19.61
2022-08-02T03:45:35.164Z,19.61
2022-08-02T03:46:39.596Z,19.61
2022-08-02T03:47:45.636Z,19.60
2022-08-02T03:48:52.000Z,19.59
2022-08-02T03:49:55.879Z,19.59
2022-08-02T03:50:58.568Z,19.59
2022-08-02T03:52:02.257Z,19.59
2022-08-02T03:53:04.922Z,19.59
2022-08-02T03:54:07.844Z,19.60
2022-08-02T03:55:11.628Z,19.58
2022-08-02T03:56:15.137Z,19.59
2022-08-02T03:57:16.923Z,19.59
2022-08-02T03:58:21.055Z,19.59
2022-08-02T03:59:22.751Z,19.60
2022-08-02T04:00:26.085Z,19.60
2022-08-02T04:01:27.968Z,19.60
2022-08-02T04:02:32.029Z,19.60
2022-08-02T04:03:36.222Z,19.60
2022-08-02T04:04:38.812Z,19.61
2022-08-02T04:06:03.324Z,19.61
2022-08-02T04:07:07.496Z,19.60
2022-08-02T04:08:35.015Z,19.61
2022-08-02T04:09:32.661Z,19.60
2022-08-02T04:10:54.805Z,19.59
2022-08-02T04:11:56.523Z,19.58
2022-08-02T04:12:59.609Z,19.57
2022-08-02T04:14:03.250Z,19.56
2022-08-02T04:15:07.657Z,19.57
2022-08-02T04:16:15.954Z,19.57
2022-08-02T04:17:21.610Z,19.57
2022-08-02T04:18:27.755Z,19.57
2022-08-02T04:19:37.193Z,19.57
2022-08-02T04:20:39.791Z,19.57
2022-08-02T04:21:51.535Z,19.58
2022-08-02T04:22:59.872Z,19.58
2022-08-02T04:24:04.768Z,19.58
2022-08-02T04:25:09.531Z,19.58
2022-08-02T04:26:26.771Z,19.58
2022-08-02T04:28:15.492Z,19.56
2022-08-02T04:28:55.294Z,19.57
2022-08-02T04:29:57.806Z,19.56
2022-08-02T04:31:02.052Z,19.58
2022-08-02T04:32:04.922Z,19.58
2022-08-02T04:33:08.714Z,19.57
2022-08-02T04:34:15.191Z,19.57
2022-08-02T04:35:20.012Z,19.58
2022-08-02T04:36:31.507Z,19.58
2022-08-02T04:37:34.786Z,19.58
2022-08-02T04:38:37.503Z,19.59
2022-08-02T04:39:40.499Z,19.59
2022-08-02T04:40:52.176Z,19.59
2022-08-02T04:41:57.541Z,19.59
2022-08-02T04:43:00.864Z,19.60
2022-08-02T04:44:02.945Z,19.60
2022-08-02T04:45:06.645Z,19.61
2022-08-02T04:46:08.385Z,19.61
2022-08-02T04:47:10.942Z,19.60
2022-08-02T04:48:12.523Z,19.61
2022-08-02T04:49:15.254Z,19.59
2022-08-02T04:50:20.815Z,19.61
2022-08-02T04:51:23.416Z,19.61
2022-08-02T04:52:44.073Z,19.62
2022-08-02T04:53:48.436Z,19.61
2022-08-02T04:54:51.179Z,19.61
2022-08-02T04:55:53.797Z,19.61
2022-08-02T04:56:56.682Z,19.63
2022-08-02T04:57:59.222Z,19.64
2022-08-02T04:59:02.530Z,19.64
2022-08-02T05:00:07.051Z,19.65
2022-08-02T05:01:13.354Z,19.67
2022-08-02T05:02:15.069Z,19.66
2022-08-02T05:03:17.618Z,19.67
2022-08-02T05:04:19.292Z,19.68
2022-08-02T05:05:23.330Z,19.70
2022-08-02T05:06:24.945Z,19.70
2022-08-02T05:07:27.917Z,19.71
2022-08-02T05:08:38.825Z,19.72
2022-08-02T05:09:40.446Z,19.74
2022-08-02T05:10:43.042Z,19.75
2022-08-02T05:11:44.654Z,19.77
2022-08-02T05:12:57.623Z,19.78
2022-08-02T05:13:59.589Z,19.80
2022-08-02T05:15:02.267Z,19.82
2022-08-02T05:16:05.491Z,19.82
2022-08-02T05:17:07.071Z,19.85
2022-08-02T05:18:09.965Z,19.88
2022-08-02T05:19:11.689Z,19.91
2022-08-02T05:20:14.892Z,19.93
2022-08-02T05:21:19.058Z,19.94
2022-08-02T05:22:20.644Z,19.94
2022-08-02T05:23:23.250Z,19.94
2022-08-02T05:24:24.863Z,19.96
2022-08-02T05:25:27.643Z,19.98
2022-08-02T05:26:29.315Z,20.00
2022-08-02T05:27:33.052Z,20.02
2022-08-02T05:28:34.743Z,20.02
2022-08-02T05:29:39.209Z,20.07
2022-08-02T05:30:55.753Z,20.11
2022-08-02T05:31:57.388Z,20.16
2022-08-02T05:32:59.988Z,20.23
2022-08-02T05:34:01.708Z,20.30
2022-08-02T05:35:04.611Z,20.35
2022-08-02T05:36:07.100Z,20.40
2022-08-02T05:37:11.130Z,20.46
2022-08-02T05:38:15.273Z,20.51
2022-08-02T05:39:18.878Z,20.57
2022-08-02T05:40:26.036Z,20.63
2022-08-02T05:41:27.924Z,20.70
2022-08-02T05:42:32.684Z,20.77
2022-08-02T05:43:35.425Z,20.83
2022-08-02T05:44:37.036Z,20.87
2022-08-02T05:45:39.821Z,20.89
2022-08-02T05:46:41.432Z,20.92
2022-08-02T05:47:44.295Z,20.93
2022-08-02T05:48:46.018Z,20.94
2022-08-02T05:49:48.594Z,20.95
2022-08-02T05:50:55.407Z,20.96
2022-08-02T05:52:04.219Z,20.99
2022-08-02T05:53:25.449Z,21.05
2022-08-02T05:54:39.436Z,21.15
2022-08-02T05:55:48.539Z,21.24
2022-08-02T05:56:56.242Z,21.33
2022-08-02T05:58:06.984Z,21.40
2022-08-02T05:59:17.774Z,21.48
2022-08-02T06:00:22.028Z,21.56
2022-08-02T06:01:32.134Z,21.64
2022-08-02T06:02:59.108Z,21.69
2022-08-02T06:04:02.009Z,21.75
2022-08-02T06:05:09.583Z,21.82
2022-08-02T06:06:13.288Z,21.89
2022-08-02T06:07:19.040Z,21.96
2022-08-02T06:08:30.828Z,22.03
2022-08-02T06:09:33.446Z,22.10
2022-08-02T06:10:38.332Z,22.17
2022-08-02T06:12:02.285Z,22.23
2022-08-02T06:13:14.468Z,22.30
2022-08-02T06:14:17.048Z,22.37
2022-08-02T06:15:20.683Z,22.43
2022-08-02T06:16:32.669Z,22.46
2022-08-02T06:17:34.813Z,22.47
2022-08-02T06:18:45.370Z,22.52
2022-08-02T06:19:51.947Z,22.57
2022-08-02T06:20:58.664Z,22.62
2022-08-02T06:22:36.022Z,22.64
2022-08-02T06:23:58.520Z,22.66
2022-08-02T06:25:03.522Z,22.67
2022-08-02T06:26:07.880Z,22.68
2022-08-02T06:27:12.274Z,22.73
2022-08-02T06:28:17.104Z,22.79
2022-08-02T06:29:20.135Z,22.85
2022-08-02T06:30:26.377Z,22.89
2022-08-02T06:31:28.594Z,22.94
2022-08-02T06:32:33.276Z,22.98
2022-08-02T06:33:34.917Z,23.01
2022-08-02T06:34:38.681Z,23.04
2022-08-02T06:35:45.375Z,23.08
2022-08-02T06:36:53.452Z,23.14
2022-08-02T06:37:59.853Z,23.19
2022-08-02T06:39:06.925Z,23.22
2022-08-02T06:40:18.657Z,23.24
2022-08-02T06:41:22.208Z,23.25
2022-08-02T06:42:30.931Z,23.27
2022-08-02T06:43:44.270Z,23.33
2022-08-02T06:44:50.696Z,23.36
2022-08-02T06:45:55.741Z,23.39
2022-08-02T06:47:18.566Z,23.39
2022-08-02T06:48:20.239Z,23.41
2022-08-02T06:49:22.896Z,23.44
2022-08-02T06:50:24.690Z,23.44
2022-08-02T06:51:27.583Z,23.46
2022-08-02T06:52:31.056Z,23.48
2022-08-02T06:53:34.021Z,23.49
2022-08-02T06:54:38.964Z,23.53
2022-08-02T06:55:44.003Z,23.55
2022-08-02T06:56:46.626Z,23.55
2022-08-02T06:57:50.389Z,23.58
2022-08-02T06:58:55.421Z,23.62
2022-08-02T07:00:01.546Z,23.67
2022-08-02T07:01:09.749Z,23.68
2022-08-02T07:02:12.169Z,23.70
2022-08-02T07:03:15.243Z,23.71
2022-08-02T07:04:19.892Z,23.75
2022-08-02T07:05:23.023Z,23.75
2022-08-02T07:06:24.639Z,23.80
2022-08-02T07:07:28.015Z,23.80
2022-08-02T07:08:32.355Z,23.79
2022-08-02T07:09:35.000Z,23.79
2022-08-02T07:10:38.878Z,23.78
2022-08-02T07:11:40.451Z,23.76
2022-08-02T07:12:43.108Z,23.74
2022-08-02T07:13:44.768Z,23.73
2022-08-02T07:14:47.329Z,23.73
2022-08-02T07:15:49.408Z,23.75
2022-08-02T07:16:53.414Z,23.74
2022-08-02T07:17:56.170Z,23.73
2022-08-02T07:18:58.311Z,23.72
2022-08-02T07:20:01.588Z,23.72
2022-08-02T07:21:05.284Z,23.73
2022-08-02T07:22:08.079Z,23.74
2022-08-02T07:23:11.036Z,23.73
2022-08-02T07:24:13.060Z,23.74
2022-08-02T07:25:15.708Z,23.75
2022-08-02T07:26:18.634Z,23.78
2022-08-02T07:27:21.496Z,23.76
2022-08-02T07:28:24.685Z,23.76
2022-08-02T07:29:28.077Z,23.80
2022-08-02T07:30:36.279Z,23.81
2022-08-02T07:31:37.978Z,23.83
2022-08-02T07:32:40.653Z,23.85
2022-08-02T07:33:46.782Z,23.86
2022-08-02T07:34:53.171Z,23.86
2022-08-02T07:35:58.652Z,23.86
2022-08-02T07:37:03.731Z,23.87
2022-08-02T07:38:08.657Z,23.88
2022-08-02T07:39:10.556Z,23.88
2022-08-02T07:40:20.352Z,23.89
2022-08-02T07:41:24.726Z,23.92
2022-08-02T07:42:27.177Z,23.93
2022-08-02T07:43:29.732Z,23.94
2022-08-02T07:44:34.777Z,23.95
2022-08-02T07:45:55.605Z,23.95
2022-08-02T07:47:00.319Z,23.94
2022-08-02T07:48:01.896Z,23.97
2022-08-02T07:49:04.572Z,23.98
2022-08-02T07:50:07.813Z,23.99
2022-08-02T07:51:15.426Z,23.99
2022-08-02T07:52:20.653Z,24.01
2022-08-02T07:53:30.561Z,24.02
2022-08-02T07:54:45.076Z,24.03
2022-08-02T07:55:47.605Z,24.06
2022-08-02T07:56:50.889Z,24.07
2022-08-02T07:58:01.745Z,24.06
2022-08-02T07:59:05.384Z,24.06
2022-08-02T08:00:08.817Z,24.09
2022-08-02T08:01:12.817Z,24.11
2022-08-02T08:02:14.886Z,24.13
2022-08-02T08:03:17.643Z,24.15
2022-08-02T08:04:19.956Z,24.16
2022-08-02T08:05:23.645Z,24.18
2022-08-02T08:06:29.004Z,24.19
2022-08-02T08:07:31.926Z,24.22
2022-08-02T08:08:36.019Z,24.24
2022-08-02T08:09:39.906Z,24.26
2022-08-02T08:10:42.869Z,24.29
2022-08-02T08:11:45.580Z,24.31
2022-08-02T08:12:49.018Z,24.34
2022-08-02T08:13:51.621Z,24.36
2022-08-02T08:14:54.373Z,24.38
2022-08-02T08:15:56.956Z,24.40
2022-08-02T08:16:59.740Z,24.40
2022-08-02T08:18:03.156Z,24.44
2022-08-02T08:19:04.752Z,24.47
2022-08-02T08:20:08.863Z,24.48
2022-08-02T08:21:12.542Z,24.51
2022-08-02T08:22:15.168Z,24.53
2022-08-02T08:23:16.773Z,24.56
2022-08-02T08:24:19.787Z,24.58
2022-08-02T08:25:21.472Z,24.62
2022-08-02T08:26:26.596Z,24.66
2022-08-02T08:27:28.196Z,24.69
2022-08-02T08:28:32.164Z,24.73
2022-08-02T08:29:33.793Z,24.76
2022-08-02T08:30:36.490Z,24.79
2022-08-02T08:31:38.133Z,24.80
2022-08-02T08:32:40.675Z,24.83
2022-08-02T08:33:42.399Z,24.86
2022-08-02T08:34:45.164Z,24.88
2022-08-02T08:35:47.739Z,24.92
2022-08-02T08:36:49.428Z,24.94
2022-08-02T08:37:52.449Z,24.97
2022-08-02T08:38:54.578Z,24.98
2022-08-02T08:39:59.009Z,25.00
2022-08-02T08:41:01.340Z,25.03
2022-08-02T08:42:07.215Z,25.07
2022-08-02T08:43:08.930Z,25.10
2022-08-02T08:44:12.993Z,25.12
2022-08-02T08:45:14.785Z,25.14
2022-08-02T08:46:26.284Z,25.16
2022-08-02T08:47:34.974Z,25.17
2022-08-02T08:48:44.601Z,25.18
2022-08-02T08:49:52.610Z,25.19
2022-08-02T08:50:58.585Z,25.20
2022-08-02T08:52:05.933Z,25.21
2022-08-02T08:53:08.701Z,25.24
2022-08-02T08:54:18.072Z,25.24
2022-08-02T08:55:22.984Z,25.24
2022-08-02T08:56:33.076Z,25.24
2022-08-02T08:57:38.025Z,25.23
2022-08-02T08:58:39.808Z,25.24
2022-08-02T08:59:43.793Z,25.27
2022-08-02T09:00:46.944Z,25.29
2022-08-02T09:01:51.439Z,25.33
2022-08-02T09:02:53.532Z,25.35
2022-08-02T09:03:56.117Z,25.40
2022-08-02T09:04:57.931Z,25.44
2022-08-02T09:06:00.882Z,25.48
2022-08-02T09:07:02.687Z,25.50
2022-08-02T09:08:06.321Z,25.53
2022-08-02T09:09:08.198Z,25.54
2022-08-02T09:10:33.535Z,25.53
2022-08-02T09:11:36.355Z,25.54
2022-08-02T09:12:38.006Z,25.56
2022-08-02T09:13:50.442Z,25.58
2022-08-02T09:14:54.823Z,25.58
2022-08-02T09:15:57.715Z,25.61
2022-08-02T09:17:13.188Z,25.62
2022-08-02T09:18:14.805Z,25.66
2022-08-02T09:19:20.063Z,25.70
2022-08-02T09:20:21.688Z,25.71
2022-08-02T09:21:24.489Z,25.75
2022-08-02T09:22:27.097Z,25.78
2022-08-02T09:23:35.306Z,25.81
2022-08-02T09:24:46.224Z,25.83
2022-08-02T09:25:59.001Z,25.86
2022-08-02T09:27:11.983Z,25.89
2022-08-02T09:28:16.117Z,25.95
2022-08-02T09:29:22.946Z,25.97
2022-08-02T09:30:27.573Z,26.05
2022-08-02T09:31:30.619Z,26.10
2022-08-02T09:32:44.019Z,26.17
2022-08-02T09:33:52.287Z,26.21
2022-08-02T09:34:55.172Z,26.26
2022-08-02T09:36:05.142Z,26.35
2022-08-02T09:37:23.093Z,26.40
2022-08-02T09:38:26.212Z,26.46
2022-08-02T09:39:45.054Z,26.52
2022-08-02T09:40:49.274Z,26.58
2022-08-02T09:41:51.864Z,26.63
2022-08-02T09:42:59.038Z,26.69
2022-08-02T09:44:06.541Z,26.76
2022-08-02T09:45:09.532Z,26.80
2022-08-02T09:46:16.534Z,26.85
2022-08-02T09:47:18.115Z,26.89
2022-08-02T09:48:20.736Z,26.91
2022-08-02T09:49:23.324Z,26.93
2022-08-02T09:50:25.118Z,26.96
2022-08-02T09:51:32.092Z,27.02
2022-08-02T09:52:37.085Z,27.08
2022-08-02T09:53:47.491Z,27.15
2022-08-02T09:54:50.634Z,27.23
2022-08-02T09:55:56.127Z,27.27
2022-08-02T09:57:00.579Z,27.30
2022-08-02T09:58:17.265Z,27.28
2022-08-02T09:59:21.234Z,27.29
2022-08-02T10:00:43.432Z,27.28
2022-08-02T10:01:51.172Z,27.29
2022-08-02T10:03:07.155Z,27.33
2022-08-02T10:04:17.281Z,27.37
2022-08-02T10:05:30.506Z,27.40
2022-08-02T10:06:39.906Z,27.41
2022-08-02T10:07:41.561Z,27.43
2022-08-02T10:08:44.194Z,27.42
2022-08-02T10:09:47.711Z,27.44
2022-08-02T10:11:00.244Z,27.46
2022-08-02T10:12:03.354Z,27.46
2022-08-02T10:13:06.827Z,27.47
2022-08-02T10:14:11.374Z,27.50
2022-08-02T10:15:13.237Z,27.51
2022-08-02T10:16:17.590Z,27.51
2022-08-02T10:17:22.153Z,27.54
2022-08-02T10:18:38.159Z,27.55
2022-08-02T10:20:02.846Z,27.57
2022-08-02T10:21:08.512Z,27.57
2022-08-02T10:22:13.034Z,27.57
2022-08-02T10:23:17.472Z,27.55
2022-08-02T10:24:23.467Z,27.50
2022-08-02T10:25:25.711Z,27.48
2022-08-02T10:26:28.418Z,27.49
2022-08-02T10:27:48.918Z,27.53
2022-08-02T10:28:54.794Z,27.57
2022-08-02T10:29:57.893Z,27.63
2022-08-02T10:31:04.845Z,27.66
2022-08-02T10:32:10.503Z,27.69
2022-08-02T10:33:18.298Z,27.71
2022-08-02T10:34:25.130Z,27.70
2022-08-02T10:35:37.572Z,27.69
2022-08-02T10:36:41.909Z,27.69
2022-08-02T10:37:47.810Z,27.67
2022-08-02T10:38:51.017Z,27.64
2022-08-02T10:39:56.466Z,27.61
2022-08-02T10:40:59.127Z,27.61
2022-08-02T10:42:01.674Z,27.63
2022-08-02T10:43:03.611Z,27.67
2022-08-02T10:44:06.186Z,27.72
2022-08-02T10:45:12.631Z,27.76
2022-08-02T10:46:22.388Z,27.81
2022-08-02T10:47:26.801Z,27.84
2022-08-02T10:48:30.712Z,27.87
2022-08-02T10:49:40.818Z,27.88
2022-08-02T10:50:53.192Z,27.89
2022-08-02T10:52:10.168Z,27.88
2022-08-02T10:53:24.723Z,27.86
2022-08-02T10:54:29.164Z,27.87
2022-08-02T10:55:46.212Z,27.89
2022-08-02T10:56:49.419Z,27.95
2022-08-02T10:58:19.130Z,27.98
2022-08-02T10:59:26.196Z,28.02
2022-08-02T11:00:28.895Z,28.01
2022-08-02T11:01:38.612Z,28.00
2022-08-02T11:02:45.069Z,27.97
2022-08-02T11:03:48.318Z,27.93
2022-08-02T11:05:06.724Z,27.89
2022-08-02T11:06:26.306Z,27.91
2022-08-02T11:07:32.826Z,27.92
2022-08-02T11:08:36.229Z,27.97
2022-08-02T11:09:38.642Z,28.01
2022-08-02T11:10:41.436Z,28.06
2022-08-02T11:12:01.245Z,28.09
2022-08-02T11:13:07.176Z,28.14
2022-08-02T11:14:15.219Z,28.19
2022-08-02T11:15:18.901Z,28.26
2022-08-02T11:16:21.522Z,28.32
2022-08-02T11:17:24.956Z,28.37
2022-08-02T11:19:00.317Z,28.43
2022-08-02T11:20:20.923Z,28.50
2022-08-02T11:21:23.991Z,28.58
2022-08-02T11:22:26.584Z,28.65
2022-08-02T11:23:44.861Z,28.72
2022-08-02T11:24:48.511Z,28.76
2022-08-02T11:26:03.511Z,28.78
2022-08-02T11:27:09.225Z,28.77
2022-08-02T11:28:12.209Z,28.77
2022-08-02T11:29:17.036Z,28.77
2022-08-02T11:30:19.332Z,28.77
2022-08-02T11:31:30.097Z,28.80
2022-08-02T11:32:35.218Z,28.83
2022-08-02T11:33:37.191Z,28.86
2022-08-02T11:34:40.317Z,28.89
2022-08-02T11:35:44.257Z,28.91
2022-08-02T11:36:49.531Z,28.93
2022-08-02T11:37:52.202Z,28.96
2022-08-02T11:39:09.893Z,28.98
2022-08-02T11:40:19.465Z,29.02
2022-08-02T11:41:46.757Z,29.05
2022-08-02T11:42:49.589Z,29.05
2022-08-02T11:43:54.507Z,29.09
2022-08-02T11:44:57.161Z,29.12
2022-08-02T11:46:02.617Z,29.14
2022-08-02T11:47:06.972Z,29.16
2022-08-02T11:48:08.607Z,29.17
2022-08-02T11:49:18.832Z,29.18
2022-08-02T11:50:30.205Z,29.20
2022-08-02T11:51:33.490Z,29.19
2022-08-02T11:52:37.152Z,29.21
2022-08-02T11:53:43.334Z,29.24
2022-08-02T11:54:46.038Z,29.26
2022-08-02T11:55:47.668Z,29.30
2022-08-02T11:56:50.217Z,29.35
2022-08-02T11:58:04.727Z,29.39
2022-08-02T11:59:09.651Z,29.41
2022-08-02T12:00:17.340Z,29.46
2022-08-02T12:01:20.983Z,29.51
2022-08-02T12:02:25.908Z,29.54
2022-08-02T12:03:35.669Z,29.55
2022-08-02T12:04:39.698Z,29.57
2022-08-02T12:06:04.713Z,29.61
2022-08-02T12:07:06.187Z,29.64
2022-08-02T12:08:10.117Z,29.67
2022-08-02T12:09:18.825Z,29.71
2022-08-02T12:10:23.301Z,29.72
2022-08-02T12:11:24.848Z,29.71
2022-08-02T12:12:27.523Z,29.71
2022-08-02T12:13:41.241Z,29.70
2022-08-02T12:14:44.668Z,29.66
2022-08-02T12:15:47.579Z,29.63
2022-08-02T12:17:08.222Z,29.64
2022-08-02T12:18:30.168Z,29.65
2022-08-02T12:19:33.057Z,29.63
2022-08-02T12:20:36.476Z,29.66
2022-08-02T12:21:39.147Z,29.69
2022-08-02T12:22:43.292Z,29.71
2022-08-02T12:24:01.071Z,29.73
2022-08-02T12:25:34.554Z,29.72
2022-08-02T12:26:44.952Z,29.72
2022-08-02T12:27:47.643Z,29.76
2022-08-02T12:28:57.367Z,29.78
2022-08-02T12:30:04.134Z,29.78
2022-08-02T12:31:08.292Z,29.77
2022-08-02T12:32:25.121Z,29.73
2022-08-02T12:33:28.460Z,29.74
2022-08-02T12:34:33.764Z,29.76
2022-08-02T12:35:36.335Z,29.78
2022-08-02T12:36:39.829Z,29.83
2022-08-02T12:37:47.451Z,29.85
2022-08-02T12:38:52.920Z,29.87
2022-08-02T12:39:55.614Z,29.88
2022-08-02T12:40:57.245Z,29.90
2022-08-02T12:41:59.860Z,29.93
2022-08-02T12:43:05.161Z,29.95
2022-08-02T12:44:14.919Z,29.94
2022-08-02T12:45:22.933Z,29.96
2022-08-02T12:46:25.904Z,29.93
2022-08-02T12:47:35.490Z,29.91
2022-08-02T12:48:52.338Z,29.89
2022-08-02T12:50:13.434Z,29.87
2022-08-02T12:51:24.112Z,29.87
2022-08-02T12:52:25.777Z,29.88
2022-08-02T12:53:35.037Z,29.95
2022-08-02T12:54:41.733Z,29.99
2022-08-02T12:55:59.231Z,30.05
2022-08-02T12:57:12.823Z,30.11
2022-08-02T12:58:14.692Z,30.16
2022-08-02T12:59:38.425Z,30.17
2022-08-02T13:00:41.686Z,30.17
2022-08-02T13:01:45.567Z,30.17
2022-08-02T13:02:48.252Z,30.20
2022-08-02T13:04:12.273Z,30.26
2022-08-02T13:05:13.116Z,30.30
2022-08-02T13:06:40.910Z,30.36
2022-08-02T13:07:37.486Z,30.40
2022-08-02T13:08:40.545Z,30.47
2022-08-02T13:09:45.924Z,30.49
2022-08-02T13:10:47.691Z,30.51
2022-08-02T13:11:50.373Z,30.53
2022-08-02T13:12:52.735Z,30.54
2022-08-02T13:13:55.592Z,30.58
2022-08-02T13:14:58.153Z,30.61
2022-08-02T13:15:59.794Z,30.62
2022-08-02T13:17:02.466Z,30.62
2022-08-02T13:18:04.442Z,30.62
2022-08-02T13:19:07.104Z,30.62
2022-08-02T13:20:10.047Z,30.61
2022-08-02T13:21:15.456Z,30.59
2022-08-02T13:22:37.221Z,30.54
2022-08-02T13:23:54.113Z,30.52
2022-08-02T13:24:57.869Z,30.52
2022-08-02T13:25:59.836Z,30.54
2022-08-02T13:27:04.611Z,30.53
2022-08-02T13:28:10.849Z,30.51
2022-08-02T13:29:13.770Z,30.48
2022-08-02T13:30:15.767Z,30.45
2022-08-02T13:31:35.905Z,30.42
2022-08-02T13:32:39.340Z,30.35
2022-08-02T13:33:40.995Z,30.32
2022-08-02T13:34:43.784Z,30.29
2022-08-02T13:35:48.031Z,30.26
2022-08-02T13:36:49.789Z,30.23
2022-08-02T13:37:52.589Z,30.18
2022-08-02T13:38:55.549Z,30.17
2022-08-02T13:40:20.389Z,30.15
2022-08-02T13:41:19.717Z,30.11
2022-08-02T13:42:22.955Z,30.11
2022-08-02T13:43:24.547Z,30.12
2022-08-02T13:44:47.188Z,30.12
2022-08-02T13:45:48.892Z,30.14
2022-08-02T13:46:51.491Z,30.15
2022-08-02T13:48:03.278Z,30.17
2022-08-02T13:49:08.358Z,30.17
2022-08-02T13:50:10.394Z,30.20
2022-08-02T13:51:14.925Z,30.23
2022-08-02T13:52:17.943Z,30.27
2022-08-02T13:53:19.972Z,30.28
2022-08-02T13:54:24.066Z,30.29
2022-08-02T13:55:26.083Z,30.30
2022-08-02T13:56:36.034Z,30.31
2022-08-02T13:57:38.010Z,30.31
2022-08-02T13:58:40.643Z,30.32
2022-08-02T13:59:56.906Z,30.30
2022-08-02T14:01:01.626Z,30.27
2022-08-02T14:02:06.446Z,30.28
2022-08-02T14:03:11.901Z,30.29
2022-08-02T14:04:14.629Z,30.28
2022-08-02T14:05:16.302Z,30.29
2022-08-02T14:06:19.822Z,30.31
2022-08-02T14:07:21.523Z,30.35
2022-08-02T14:08:24.120Z,30.38
2022-08-02T14:09:27.215Z,30.41
2022-08-02T14:10:30.414Z,30.41